sensor_id;sensor_type;location;lat;lon;timestamp;temperature;humidity
75161;DHT22;63738;50.096;8.716;2022-12-10T00:01:12;2.30;80.50
75161;DHT22;63738;50.096;8.716;2022-12-10T00:03:38;2.30;80.40
75161;DHT22;63738;50.096;8.716;2022-12-10T00:06:09;2.20;80.60
75161;DHT22;63738;50.096;8.716;2022-12-10T00:08:35;2.30;80.60
75161;DHT22;63738;50.096;8.716;2022-12-10T00:11:05;2.20;80.70
75161;DHT22;63738;50.096;8.716;2022-12-10T00:13:33;2.20;80.50
75161;DHT22;63738;50.096;8.716;2022-12-10T00:16:05;2.10;80.60
75161;DHT22;63738;50.096;8.716;2022-12-10T00:18:32;2.00;80.90
75161;DHT22;63738;50.096;8.716;2022-12-10T00:20:58;2.10;80.80
75161;DHT22;63738;50.096;8.716;2022-12-10T00:23:24;2.10;80.70
75161;DHT22;63738;50.096;8.716;2022-12-10T00:25:49;2.00;80.80
75161;DHT22;63738;50.096;8.716;2022-12-10T00:28:15;2.10;80.80
75161;DHT22;63738;50.096;8.716;2022-12-10T00:30:41;2.10;80.70
75161;DHT22;63738;50.096;8.716;2022-12-10T00:33:06;2.00;80.60
75161;DHT22;63738;50.096;8.716;2022-12-10T00:35:35;2.00;80.60
75161;DHT22;63738;50.096;8.716;2022-12-10T00:38:01;1.90;80.70
75161;DHT22;63738;50.096;8.716;2022-12-10T00:40:26;2.00;80.90
75161;DHT22;63738;50.096;8.716;2022-12-10T00:42:52;2.00;80.80
75161;DHT22;63738;50.096;8.716;2022-12-10T00:45:17;2.00;80.70
75161;DHT22;63738;50.096;8.716;2022-12-10T00:47:43;2.00;80.60
75161;DHT22;63738;50.096;8.716;2022-12-10T00:50:09;2.00;80.70
75161;DHT22;63738;50.096;8.716;2022-12-10T00:52:34;1.90;80.70
75161;DHT22;63738;50.096;8.716;2022-12-10T00:55:03;1.90;80.60
75161;DHT22;63738;50.096;8.716;2022-12-10T00:57:39;2.00;80.70
75161;DHT22;63738;50.096;8.716;2022-12-10T01:00:15;2.00;80.70
75161;DHT22;63738;50.096;8.716;2022-12-10T01:02:49;2.10;80.60
75161;DHT22;63738;50.096;8.716;2022-12-10T01:05:15;2.10;80.50
75161;DHT22;63738;50.096;8.716;2022-12-10T01:07:41;2.10;80.40
75161;DHT22;63738;50.096;8.716;2022-12-10T01:10:06;2.20;80.40
75161;DHT22;63738;50.096;8.716;2022-12-10T01:12:32;2.00;80.50
75161;DHT22;63738;50.096;8.716;2022-12-10T01:14:58;1.90;80.60
75161;DHT22;63738;50.096;8.716;2022-12-10T01:17:23;1.90;80.60
75161;DHT22;63738;50.096;8.716;2022-12-10T01:19:49;2.00;80.80
75161;DHT22;63738;50.096;8.716;2022-12-10T01:22:14;1.90;80.80
75161;DHT22;63738;50.096;8.716;2022-12-10T01:24:46;1.90;80.70
75161;DHT22;63738;50.096;8.716;2022-12-10T01:27:12;2.00;80.60
75161;DHT22;63738;50.096;8.716;2022-12-10T01:29:37;2.00;80.50
75161;DHT22;63738;50.096;8.716;2022-12-10T01:32:03;2.00;80.60
75161;DHT22;63738;50.096;8.716;2022-12-10T01:34:29;2.00;80.60
75161;DHT22;63738;50.096;8.716;2022-12-10T01:36:54;2.10;80.40
75161;DHT22;63738;50.096;8.716;2022-12-10T01:39:21;2.00;80.40
75161;DHT22;63738;50.096;8.716;2022-12-10T01:41:53;2.00;80.50
75161;DHT22;63738;50.096;8.716;2022-12-10T01:46:47;1.90;80.60
75161;DHT22;63738;50.096;8.716;2022-12-10T01:49:19;1.90;80.60
75161;DHT22;63738;50.096;8.716;2022-12-10T01:51:48;1.80;80.50
75161;DHT22;63738;50.096;8.716;2022-12-10T01:54:18;1.70;80.70
75161;DHT22;63738;50.096;8.716;2022-12-10T01:56:46;1.80;80.60
75161;DHT22;63738;50.096;8.716;2022-12-10T01:59:14;1.90;80.40
75161;DHT22;63738;50.096;8.716;2022-12-10T02:07:51;1.70;80.30
75161;DHT22;63738;50.096;8.716;2022-12-10T02:13:18;1.60;80.20
75161;DHT22;63738;50.096;8.716;2022-12-10T02:15:51;1.60;80.20
75161;DHT22;63738;50.096;8.716;2022-12-10T02:18:36;1.70;80.20
75161;DHT22;63738;50.096;8.716;2022-12-10T02:21:19;1.70;80.20
75161;DHT22;63738;50.096;8.716;2022-12-10T02:23:51;1.70;80.20
75161;DHT22;63738;50.096;8.716;2022-12-10T02:26:40;1.60;80.50
75161;DHT22;63738;50.096;8.716;2022-12-10T02:29:20;1.60;80.50
75161;DHT22;63738;50.096;8.716;2022-12-10T02:31:52;1.50;80.70
75161;DHT22;63738;50.096;8.716;2022-12-10T02:34:19;1.50;80.50
75161;DHT22;63738;50.096;8.716;2022-12-10T02:36:49;1.50;80.60
75161;DHT22;63738;50.096;8.716;2022-12-10T02:39:21;1.50;80.40
75161;DHT22;63738;50.096;8.716;2022-12-10T02:41:51;1.60;80.40
75161;DHT22;63738;50.096;8.716;2022-12-10T02:44:19;1.60;80.50
75161;DHT22;63738;50.096;8.716;2022-12-10T02:46:47;1.60;80.50
75161;DHT22;63738;50.096;8.716;2022-12-10T02:49:15;1.60;80.50
75161;DHT22;63738;50.096;8.716;2022-12-10T02:51:41;1.60;80.50
75161;DHT22;63738;50.096;8.716;2022-12-10T02:54:34;1.60;80.30
75161;DHT22;63738;50.096;8.716;2022-12-10T02:57:03;1.50;80.30
75161;DHT22;63738;50.096;8.716;2022-12-10T02:59:39;1.50;80.50
75161;DHT22;63738;50.096;8.716;2022-12-10T03:05:03;1.50;80.30
75161;DHT22;63738;50.096;8.716;2022-12-10T03:07:56;1.40;80.70
75161;DHT22;63738;50.096;8.716;2022-12-10T03:10:25;1.60;80.70
75161;DHT22;63738;50.096;8.716;2022-12-10T03:12:58;1.70;80.50
75161;DHT22;63738;50.096;8.716;2022-12-10T03:15:26;1.60;80.30
75161;DHT22;63738;50.096;8.716;2022-12-10T03:17:53;1.70;80.20
75161;DHT22;63738;50.096;8.716;2022-12-10T03:20:22;1.60;80.20
75161;DHT22;63738;50.096;8.716;2022-12-10T03:22:49;1.60;80.30
75161;DHT22;63738;50.096;8.716;2022-12-10T03:25:19;1.70;80.10
75161;DHT22;63738;50.096;8.716;2022-12-10T03:27:45;1.60;80.10
75161;DHT22;63738;50.096;8.716;2022-12-10T03:30:12;1.50;80.30
75161;DHT22;63738;50.096;8.716;2022-12-10T03:32:40;1.50;80.50
75161;DHT22;63738;50.096;8.716;2022-12-10T03:35:06;1.40;80.60
75161;DHT22;63738;50.096;8.716;2022-12-10T03:37:32;1.40;80.60
75161;DHT22;63738;50.096;8.716;2022-12-10T03:39:59;1.30;80.80
75161;DHT22;63738;50.096;8.716;2022-12-10T03:42:25;1.20;80.80
75161;DHT22;63738;50.096;8.716;2022-12-10T03:44:51;1.30;80.80
75161;DHT22;63738;50.096;8.716;2022-12-10T03:47:18;1.30;80.80
75161;DHT22;63738;50.096;8.716;2022-12-10T03:49:44;1.20;80.90
75161;DHT22;63738;50.096;8.716;2022-12-10T03:52:10;1.10;81.10
75161;DHT22;63738;50.096;8.716;2022-12-10T03:54:36;1.10;81.10
75161;DHT22;63738;50.096;8.716;2022-12-10T03:57:02;0.90;81.40
75161;DHT22;63738;50.096;8.716;2022-12-10T03:59:28;1.00;81.50
75161;DHT22;63738;50.096;8.716;2022-12-10T04:01:53;0.90;81.40
75161;DHT22;63738;50.096;8.716;2022-12-10T04:04:19;1.00;81.50
75161;DHT22;63738;50.096;8.716;2022-12-10T04:06:44;1.00;81.50
75161;DHT22;63738;50.096;8.716;2022-12-10T04:09:11;0.90;81.50
75161;DHT22;63738;50.096;8.716;2022-12-10T04:11:38;0.90;81.60
75161;DHT22;63738;50.096;8.716;2022-12-10T04:14:03;0.90;81.60
75161;DHT22;63738;50.096;8.716;2022-12-10T04:16:47;0.90;81.70
75161;DHT22;63738;50.096;8.716;2022-12-10T04:19:15;0.90;81.40
75161;DHT22;63738;50.096;8.716;2022-12-10T04:21:42;0.90;81.60
75161;DHT22;63738;50.096;8.716;2022-12-10T04:24:28;0.90;81.70
75161;DHT22;63738;50.096;8.716;2022-12-10T04:27:28;0.90;81.70
75161;DHT22;63738;50.096;8.716;2022-12-10T04:29:55;0.90;81.60
75161;DHT22;63738;50.096;8.716;2022-12-10T04:32:21;0.90;81.60
75161;DHT22;63738;50.096;8.716;2022-12-10T04:34:47;0.90;81.70
75161;DHT22;63738;50.096;8.716;2022-12-10T04:37:13;0.90;81.60
75161;DHT22;63738;50.096;8.716;2022-12-10T04:39:39;0.90;81.60
75161;DHT22;63738;50.096;8.716;2022-12-10T04:42:05;0.90;81.80
75161;DHT22;63738;50.096;8.716;2022-12-10T04:44:31;0.90;81.70
75161;DHT22;63738;50.096;8.716;2022-12-10T04:46:57;0.90;81.70
75161;DHT22;63738;50.096;8.716;2022-12-10T04:49:23;0.80;81.70
75161;DHT22;63738;50.096;8.716;2022-12-10T04:51:49;0.80;81.80
75161;DHT22;63738;50.096;8.716;2022-12-10T04:54:15;0.90;81.80
75161;DHT22;63738;50.096;8.716;2022-12-10T04:56:41;0.90;81.80
75161;DHT22;63738;50.096;8.716;2022-12-10T04:59:09;0.70;81.90
75161;DHT22;63738;50.096;8.716;2022-12-10T05:01:34;0.80;81.90
75161;DHT22;63738;50.096;8.716;2022-12-10T05:04:03;0.70;82.00
75161;DHT22;63738;50.096;8.716;2022-12-10T05:06:29;0.80;81.90
75161;DHT22;63738;50.096;8.716;2022-12-10T05:08:55;0.80;81.90
75161;DHT22;63738;50.096;8.716;2022-12-10T05:11:22;0.80;81.90
75161;DHT22;63738;50.096;8.716;2022-12-10T05:13:48;0.90;81.90
75161;DHT22;63738;50.096;8.716;2022-12-10T05:16:16;0.90;81.90
75161;DHT22;63738;50.096;8.716;2022-12-10T05:18:42;0.80;82.10
75161;DHT22;63738;50.096;8.716;2022-12-10T05:21:11;0.80;82.10
75161;DHT22;63738;50.096;8.716;2022-12-10T05:23:39;0.80;82.20
75161;DHT22;63738;50.096;8.716;2022-12-10T05:28:33;0.60;82.50
75161;DHT22;63738;50.096;8.716;2022-12-10T05:31:00;0.70;82.60
75161;DHT22;63738;50.096;8.716;2022-12-10T05:33:25;0.70;82.50
75161;DHT22;63738;50.096;8.716;2022-12-10T05:35:59;0.80;82.40
75161;DHT22;63738;50.096;8.716;2022-12-10T05:38:27;0.70;82.40
75161;DHT22;63738;50.096;8.716;2022-12-10T05:40:53;0.80;82.30
75161;DHT22;63738;50.096;8.716;2022-12-10T05:43:19;0.80;82.20
75161;DHT22;63738;50.096;8.716;2022-12-10T05:45:45;0.90;82.20
75161;DHT22;63738;50.096;8.716;2022-12-10T05:48:13;0.80;82.20
75161;DHT22;63738;50.096;8.716;2022-12-10T05:50:39;0.90;82.30
75161;DHT22;63738;50.096;8.716;2022-12-10T05:53:05;0.90;82.20
75161;DHT22;63738;50.096;8.716;2022-12-10T05:55:30;0.80;82.30
75161;DHT22;63738;50.096;8.716;2022-12-10T05:58:00;0.90;82.30
75161;DHT22;63738;50.096;8.716;2022-12-10T06:00:27;0.90;82.10
75161;DHT22;63738;50.096;8.716;2022-12-10T06:02:53;0.90;82.20
75161;DHT22;63738;50.096;8.716;2022-12-10T06:05:19;1.00;82.20
75161;DHT22;63738;50.096;8.716;2022-12-10T06:07:44;1.00;82.20
75161;DHT22;63738;50.096;8.716;2022-12-10T06:10:11;1.10;82.20
75161;DHT22;63738;50.096;8.716;2022-12-10T06:12:37;1.00;82.10
75161;DHT22;63738;50.096;8.716;2022-12-10T06:15:04;1.10;82.20
75161;DHT22;63738;50.096;8.716;2022-12-10T06:17:30;1.20;82.00
75161;DHT22;63738;50.096;8.716;2022-12-10T06:19:55;1.20;81.80
75161;DHT22;63738;50.096;8.716;2022-12-10T06:22:21;1.30;81.80
75161;DHT22;63738;50.096;8.716;2022-12-10T06:24:47;1.40;81.80
75161;DHT22;63738;50.096;8.716;2022-12-10T06:27:12;1.40;81.80
75161;DHT22;63738;50.096;8.716;2022-12-10T06:29:38;1.40;81.90
75161;DHT22;63738;50.096;8.716;2022-12-10T06:32:03;1.40;81.80
75161;DHT22;63738;50.096;8.716;2022-12-10T06:34:29;1.50;81.90
75161;DHT22;63738;50.096;8.716;2022-12-10T06:36:55;1.50;81.80
75161;DHT22;63738;50.096;8.716;2022-12-10T06:39:20;1.40;81.90
75161;DHT22;63738;50.096;8.716;2022-12-10T06:41:46;1.40;82.10
75161;DHT22;63738;50.096;8.716;2022-12-10T06:44:12;1.50;82.00
75161;DHT22;63738;50.096;8.716;2022-12-10T06:46:39;1.50;82.00
75161;DHT22;63738;50.096;8.716;2022-12-10T06:49:06;1.60;81.90
75161;DHT22;63738;50.096;8.716;2022-12-10T06:51:32;1.60;81.90
75161;DHT22;63738;50.096;8.716;2022-12-10T06:53:57;1.70;81.80
75161;DHT22;63738;50.096;8.716;2022-12-10T06:56:23;1.70;81.60
75161;DHT22;63738;50.096;8.716;2022-12-10T06:58:48;1.80;81.70
75161;DHT22;63738;50.096;8.716;2022-12-10T07:01:22;1.80;81.80
75161;DHT22;63738;50.096;8.716;2022-12-10T07:03:52;1.80;81.70
75161;DHT22;63738;50.096;8.716;2022-12-10T07:06:19;1.90;81.60
75161;DHT22;63738;50.096;8.716;2022-12-10T07:08:45;2.00;81.40
75161;DHT22;63738;50.096;8.716;2022-12-10T07:11:13;2.00;81.20
75161;DHT22;63738;50.096;8.716;2022-12-10T07:13:39;2.00;81.40
75161;DHT22;63738;50.096;8.716;2022-12-10T07:16:23;2.10;81.30
75161;DHT22;63738;50.096;8.716;2022-12-10T07:18:49;2.10;81.40
75161;DHT22;63738;50.096;8.716;2022-12-10T07:21:27;2.00;81.30
75161;DHT22;63738;50.096;8.716;2022-12-10T07:23:55;2.00;81.40
75161;DHT22;63738;50.096;8.716;2022-12-10T07:26:24;2.10;81.30
75161;DHT22;63738;50.096;8.716;2022-12-10T07:28:49;2.10;81.10
75161;DHT22;63738;50.096;8.716;2022-12-10T07:31:15;2.10;81.20
75161;DHT22;63738;50.096;8.716;2022-12-10T07:33:41;2.20;81.30
75161;DHT22;63738;50.096;8.716;2022-12-10T07:36:09;2.20;81.30
75161;DHT22;63738;50.096;8.716;2022-12-10T07:38:35;2.30;81.10
75161;DHT22;63738;50.096;8.716;2022-12-10T07:41:05;2.30;81.20
75161;DHT22;63738;50.096;8.716;2022-12-10T07:43:35;2.30;81.30
75161;DHT22;63738;50.096;8.716;2022-12-10T07:46:31;2.40;81.10
75161;DHT22;63738;50.096;8.716;2022-12-10T07:49:00;2.40;81.00
75161;DHT22;63738;50.096;8.716;2022-12-10T07:51:25;2.40;81.00
75161;DHT22;63738;50.096;8.716;2022-12-10T07:53:52;2.30;81.10
75161;DHT22;63738;50.096;8.716;2022-12-10T07:56:18;2.40;81.00
75161;DHT22;63738;50.096;8.716;2022-12-10T07:58:45;2.30;81.10
75161;DHT22;63738;50.096;8.716;2022-12-10T08:01:15;2.40;80.90
75161;DHT22;63738;50.096;8.716;2022-12-10T08:03:42;2.40;80.80
75161;DHT22;63738;50.096;8.716;2022-12-10T08:06:13;2.50;80.80
75161;DHT22;63738;50.096;8.716;2022-12-10T08:08:39;2.50;80.50
75161;DHT22;63738;50.096;8.716;2022-12-10T08:11:05;2.50;80.80
75161;DHT22;63738;50.096;8.716;2022-12-10T08:13:32;2.50;80.60
75161;DHT22;63738;50.096;8.716;2022-12-10T08:16:10;2.60;80.60
75161;DHT22;63738;50.096;8.716;2022-12-10T08:18:37;2.60;80.90
75161;DHT22;63738;50.096;8.716;2022-12-10T08:21:07;2.70;80.60
75161;DHT22;63738;50.096;8.716;2022-12-10T08:23:33;2.80;80.40
75161;DHT22;63738;50.096;8.716;2022-12-10T08:26:06;2.70;80.10
75161;DHT22;63738;50.096;8.716;2022-12-10T08:28:33;2.60;80.60
75161;DHT22;63738;50.096;8.716;2022-12-10T08:30:59;2.80;80.50
75161;DHT22;63738;50.096;8.716;2022-12-10T08:33:24;2.80;80.30
75161;DHT22;63738;50.096;8.716;2022-12-10T08:35:50;2.90;80.20
75161;DHT22;63738;50.096;8.716;2022-12-10T08:38:16;2.90;80.30
75161;DHT22;63738;50.096;8.716;2022-12-10T08:40:41;3.00;80.30
75161;DHT22;63738;50.096;8.716;2022-12-10T08:43:07;3.10;79.80
75161;DHT22;63738;50.096;8.716;2022-12-10T08:45:33;3.30;79.50
75161;DHT22;63738;50.096;8.716;2022-12-10T08:48:03;3.20;79.50
75161;DHT22;63738;50.096;8.716;2022-12-10T08:50:29;3.30;79.50
75161;DHT22;63738;50.096;8.716;2022-12-10T08:52:54;3.40;79.60
75161;DHT22;63738;50.096;8.716;2022-12-10T08:55:20;3.50;79.10
75161;DHT22;63738;50.096;8.716;2022-12-10T08:57:45;3.60;79.00
75161;DHT22;63738;50.096;8.716;2022-12-10T09:00:11;3.50;78.70
75161;DHT22;63738;50.096;8.716;2022-12-10T09:02:39;3.70;78.90
75161;DHT22;63738;50.096;8.716;2022-12-10T09:05:05;4.00;78.50
75161;DHT22;63738;50.096;8.716;2022-12-10T09:07:31;4.00;77.90
75161;DHT22;63738;50.096;8.716;2022-12-10T09:09:56;3.70;78.10
75161;DHT22;63738;50.096;8.716;2022-12-10T09:12:22;3.70;78.30
75161;DHT22;63738;50.096;8.716;2022-12-10T09:14:48;3.70;78.30
75161;DHT22;63738;50.096;8.716;2022-12-10T09:17:14;3.80;78.20
75161;DHT22;63738;50.096;8.716;2022-12-10T09:19:39;3.60;78.20
75161;DHT22;63738;50.096;8.716;2022-12-10T09:22:05;3.70;78.30
75161;DHT22;63738;50.096;8.716;2022-12-10T09:24:31;3.60;78.20
75161;DHT22;63738;50.096;8.716;2022-12-10T09:26:56;3.70;78.20
75161;DHT22;63738;50.096;8.716;2022-12-10T09:29:22;3.70;78.20
75161;DHT22;63738;50.096;8.716;2022-12-10T09:31:51;3.80;78.00
75161;DHT22;63738;50.096;8.716;2022-12-10T09:34:17;3.90;78.10
75161;DHT22;63738;50.096;8.716;2022-12-10T09:36:42;4.20;77.70
75161;DHT22;63738;50.096;8.716;2022-12-10T09:39:08;4.00;77.70
75161;DHT22;63738;50.096;8.716;2022-12-10T09:47:35;3.80;78.10
75161;DHT22;63738;50.096;8.716;2022-12-10T09:50:23;3.80;78.20
75161;DHT22;63738;50.096;8.716;2022-12-10T09:52:52;3.70;78.20
75161;DHT22;63738;50.096;8.716;2022-12-10T09:55:32;3.60;78.50
75161;DHT22;63738;50.096;8.716;2022-12-10T09:57:59;3.40;78.50
75161;DHT22;63738;50.096;8.716;2022-12-10T10:02:57;3.40;78.60
75161;DHT22;63738;50.096;8.716;2022-12-10T10:05:39;3.40;78.70
75161;DHT22;63738;50.096;8.716;2022-12-10T10:08:13;3.50;78.70
75161;DHT22;63738;50.096;8.716;2022-12-10T10:10:40;3.40;78.90
75161;DHT22;63738;50.096;8.716;2022-12-10T10:15:37;3.40;78.70
75161;DHT22;63738;50.096;8.716;2022-12-10T10:18:24;3.40;78.80
75161;DHT22;63738;50.096;8.716;2022-12-10T10:20:52;3.30;78.90
75161;DHT22;63738;50.096;8.716;2022-12-10T10:23:17;3.30;79.10
75161;DHT22;63738;50.096;8.716;2022-12-10T10:25:43;3.40;78.90
75161;DHT22;63738;50.096;8.716;2022-12-10T10:28:13;3.50;78.70
75161;DHT22;63738;50.096;8.716;2022-12-10T10:30:43;3.60;78.80
75161;DHT22;63738;50.096;8.716;2022-12-10T10:33:14;3.70;78.60
75161;DHT22;63738;50.096;8.716;2022-12-10T10:36:02;3.70;78.40
75161;DHT22;63738;50.096;8.716;2022-12-10T10:38:28;3.60;78.40
75161;DHT22;63738;50.096;8.716;2022-12-10T10:40:59;3.70;78.50
75161;DHT22;63738;50.096;8.716;2022-12-10T10:43:32;3.80;78.70
75161;DHT22;63738;50.096;8.716;2022-12-10T10:46:14;3.70;78.70
75161;DHT22;63738;50.096;8.716;2022-12-10T10:48:40;3.80;78.80
75161;DHT22;63738;50.096;8.716;2022-12-10T10:53:43;3.80;78.30
75161;DHT22;63738;50.096;8.716;2022-12-10T10:56:15;3.70;78.40
75161;DHT22;63738;50.096;8.716;2022-12-10T11:01:18;3.70;78.60
75161;DHT22;63738;50.096;8.716;2022-12-10T11:03:45;3.90;78.60
75161;DHT22;63738;50.096;8.716;2022-12-10T11:06:12;3.90;78.60
75161;DHT22;63738;50.096;8.716;2022-12-10T11:08:38;4.10;78.30
75161;DHT22;63738;50.096;8.716;2022-12-10T11:11:57;4.30;78.20
75161;DHT22;63738;50.096;8.716;2022-12-10T11:13:52;4.40;78.20
75161;DHT22;63738;50.096;8.716;2022-12-10T11:16:21;4.60;77.70
75161;DHT22;63738;50.096;8.716;2022-12-10T11:18:59;4.50;77.20
75161;DHT22;63738;50.096;8.716;2022-12-10T11:21:29;4.50;77.30
75161;DHT22;63738;50.096;8.716;2022-12-10T11:23:56;4.50;77.50
75161;DHT22;63738;50.096;8.716;2022-12-10T11:45:44;7.90;69.70
75161;DHT22;63738;50.096;8.716;2022-12-10T11:54:06;8.00;68.20
75161;DHT22;63738;50.096;8.716;2022-12-10T11:56:38;7.30;69.20
75161;DHT22;63738;50.096;8.716;2022-12-10T11:59:12;7.20;70.60
75161;DHT22;63738;50.096;8.716;2022-12-10T12:04:30;9.10;68.40
75161;DHT22;63738;50.096;8.716;2022-12-10T12:17:48;20.60;45.00
75161;DHT22;63738;50.096;8.716;2022-12-10T12:20:29;21.10;43.10
75161;DHT22;63738;50.096;8.716;2022-12-10T12:23:05;21.20;41.70
75161;DHT22;63738;50.096;8.716;2022-12-10T12:25:38;17.70;47.10
75161;DHT22;63738;50.096;8.716;2022-12-10T12:28:22;14.20;51.30
75161;DHT22;63738;50.096;8.716;2022-12-10T12:31:06;11.80;57.20
75161;DHT22;63738;50.096;8.716;2022-12-10T12:33:44;14.70;52.90
75161;DHT22;63738;50.096;8.716;2022-12-10T12:36:22;16.80;49.70
75161;DHT22;63738;50.096;8.716;2022-12-10T12:38:58;19.30;44.60
75161;DHT22;63738;50.096;8.716;2022-12-10T12:46:44;13.90;52.50
75161;DHT22;63738;50.096;8.716;2022-12-10T12:49:25;13.90;53.00
75161;DHT22;63738;50.096;8.716;2022-12-10T12:52:18;11.10;56.90
75161;DHT22;63738;50.096;8.716;2022-12-10T12:54:47;9.50;60.20
75161;DHT22;63738;50.096;8.716;2022-12-10T13:00:05;7.60;64.00
75161;DHT22;63738;50.096;8.716;2022-12-10T13:05:35;6.40;66.40
75161;DHT22;63738;50.096;8.716;2022-12-10T13:15:50;4.80;70.50
75161;DHT22;63738;50.096;8.716;2022-12-10T13:20:52;4.70;71.30
75161;DHT22;63738;50.096;8.716;2022-12-10T13:23:53;4.70;71.50
75161;DHT22;63738;50.096;8.716;2022-12-10T13:26:24;4.80;71.30
75161;DHT22;63738;50.096;8.716;2022-12-10T13:28:53;4.70;71.10
75161;DHT22;63738;50.096;8.716;2022-12-10T13:41:31;4.90;71.30
75161;DHT22;63738;50.096;8.716;2022-12-10T13:44:37;4.80;71.30
75161;DHT22;63738;50.096;8.716;2022-12-10T13:49:52;4.70;71.10
75161;DHT22;63738;50.096;8.716;2022-12-10T13:52:25;4.80;71.00
75161;DHT22;63738;50.096;8.716;2022-12-10T13:58:00;4.70;70.90
75161;DHT22;63738;50.096;8.716;2022-12-10T14:00:44;4.80;71.00
75161;DHT22;63738;50.096;8.716;2022-12-10T14:03:32;4.80;71.10
75161;DHT22;63738;50.096;8.716;2022-12-10T14:06:19;4.80;71.00
75161;DHT22;63738;50.096;8.716;2022-12-10T14:09:18;4.60;71.10
75161;DHT22;63738;50.096;8.716;2022-12-10T14:11:57;4.50;71.70
75161;DHT22;63738;50.096;8.716;2022-12-10T14:14:50;4.40;71.60
75161;DHT22;63738;50.096;8.716;2022-12-10T14:17:24;4.30;72.10
75161;DHT22;63738;50.096;8.716;2022-12-10T14:19:56;4.30;72.30
75161;DHT22;63738;50.096;8.716;2022-12-10T14:22:31;4.40;72.50
75161;DHT22;63738;50.096;8.716;2022-12-10T14:25:00;4.30;72.30
75161;DHT22;63738;50.096;8.716;2022-12-10T14:27:27;4.20;72.30
75161;DHT22;63738;50.096;8.716;2022-12-10T14:30:00;4.20;72.30
75161;DHT22;63738;50.096;8.716;2022-12-10T14:32:32;4.10;72.70
75161;DHT22;63738;50.096;8.716;2022-12-10T14:34:59;4.00;72.90
75161;DHT22;63738;50.096;8.716;2022-12-10T14:37:28;3.90;73.20
75161;DHT22;63738;50.096;8.716;2022-12-10T14:39:55;3.80;73.50
75161;DHT22;63738;50.096;8.716;2022-12-10T14:42:21;3.70;73.80
75161;DHT22;63738;50.096;8.716;2022-12-10T14:44:49;3.60;74.10
75161;DHT22;63738;50.096;8.716;2022-12-10T14:47:19;3.50;74.60
75161;DHT22;63738;50.096;8.716;2022-12-10T14:49:49;3.60;75.10
75161;DHT22;63738;50.096;8.716;2022-12-10T14:52:21;3.40;74.60
75161;DHT22;63738;50.096;8.716;2022-12-10T14:54:48;3.30;74.30
75161;DHT22;63738;50.096;8.716;2022-12-10T14:57:24;3.20;74.40
75161;DHT22;63738;50.096;8.716;2022-12-10T15:02:30;3.10;75.10
75161;DHT22;63738;50.096;8.716;2022-12-10T15:04:56;2.90;75.50
75161;DHT22;63738;50.096;8.716;2022-12-10T15:07:24;2.80;75.80
75161;DHT22;63738;50.096;8.716;2022-12-10T15:09:52;2.80;75.90
75161;DHT22;63738;50.096;8.716;2022-12-10T15:12:37;2.70;76.20
75161;DHT22;63738;50.096;8.716;2022-12-10T15:15:14;2.80;76.30
75161;DHT22;63738;50.096;8.716;2022-12-10T15:17:55;2.70;76.60
75161;DHT22;63738;50.096;8.716;2022-12-10T15:20:47;2.60;76.40
75161;DHT22;63738;50.096;8.716;2022-12-10T15:28:41;2.60;76.40
75161;DHT22;63738;50.096;8.716;2022-12-10T15:31:22;2.50;76.60
75161;DHT22;63738;50.096;8.716;2022-12-10T15:33:57;2.50;76.80
75161;DHT22;63738;50.096;8.716;2022-12-10T15:39:24;2.50;76.90
75161;DHT22;63738;50.096;8.716;2022-12-10T15:41:54;2.40;77.20
75161;DHT22;63738;50.096;8.716;2022-12-10T15:47:19;2.40;77.00
75161;DHT22;63738;50.096;8.716;2022-12-10T15:49:47;2.40;76.90
75161;DHT22;63738;50.096;8.716;2022-12-10T15:52:24;2.40;77.00
75161;DHT22;63738;50.096;8.716;2022-12-10T15:54:52;2.40;77.00
75161;DHT22;63738;50.096;8.716;2022-12-10T16:00:25;2.30;77.20
75161;DHT22;63738;50.096;8.716;2022-12-10T16:05:27;2.30;77.20
75161;DHT22;63738;50.096;8.716;2022-12-10T16:10:44;2.40;77.40
75161;DHT22;63738;50.096;8.716;2022-12-10T16:13:25;2.50;77.10
75161;DHT22;63738;50.096;8.716;2022-12-10T16:15:54;2.40;77.30
75161;DHT22;63738;50.096;8.716;2022-12-10T16:18:22;2.40;77.20
75161;DHT22;63738;50.096;8.716;2022-12-10T16:20:48;2.40;77.10
75161;DHT22;63738;50.096;8.716;2022-12-10T16:23:14;2.40;76.90
75161;DHT22;63738;50.096;8.716;2022-12-10T16:25:41;2.40;76.60
75161;DHT22;63738;50.096;8.716;2022-12-10T16:28:15;2.20;76.50
75161;DHT22;63738;50.096;8.716;2022-12-10T16:30:44;2.10;77.10
75161;DHT22;63738;50.096;8.716;2022-12-10T16:33:11;2.20;77.00
75161;DHT22;63738;50.096;8.716;2022-12-10T16:35:37;2.30;76.80
75161;DHT22;63738;50.096;8.716;2022-12-10T16:38:02;2.20;77.00
75161;DHT22;63738;50.096;8.716;2022-12-10T16:40:28;2.10;76.30
75161;DHT22;63738;50.096;8.716;2022-12-10T16:42:55;2.10;76.10
75161;DHT22;63738;50.096;8.716;2022-12-10T16:45:36;2.10;76.00
75161;DHT22;63738;50.096;8.716;2022-12-10T16:48:03;2.00;76.30
75161;DHT22;63738;50.096;8.716;2022-12-10T16:50:29;2.00;76.30
75161;DHT22;63738;50.096;8.716;2022-12-10T16:52:56;2.00;76.10
75161;DHT22;63738;50.096;8.716;2022-12-10T16:55:24;2.00;76.10
75161;DHT22;63738;50.096;8.716;2022-12-10T16:57:50;2.00;76.20
75161;DHT22;63738;50.096;8.716;2022-12-10T17:00:19;2.00;76.40
75161;DHT22;63738;50.096;8.716;2022-12-10T17:02:46;1.70;76.70
75161;DHT22;63738;50.096;8.716;2022-12-10T17:05:17;1.70;77.20
75161;DHT22;63738;50.096;8.716;2022-12-10T17:07:46;1.60;77.20
75161;DHT22;63738;50.096;8.716;2022-12-10T17:10:12;1.70;77.20
75161;DHT22;63738;50.096;8.716;2022-12-10T17:12:39;1.60;77.50
75161;DHT22;63738;50.096;8.716;2022-12-10T17:15:08;1.70;77.50
75161;DHT22;63738;50.096;8.716;2022-12-10T17:17:34;1.60;77.30
75161;DHT22;63738;50.096;8.716;2022-12-10T17:19:59;1.30;77.70
75161;DHT22;63738;50.096;8.716;2022-12-10T17:22:28;1.30;78.00
75161;DHT22;63738;50.096;8.716;2022-12-10T17:24:53;1.30;78.60
75161;DHT22;63738;50.096;8.716;2022-12-10T17:27:20;1.30;78.60
75161;DHT22;63738;50.096;8.716;2022-12-10T17:29:47;1.30;78.50
75161;DHT22;63738;50.096;8.716;2022-12-10T17:32:20;1.30;79.00
75161;DHT22;63738;50.096;8.716;2022-12-10T17:34:47;1.30;78.80
75161;DHT22;63738;50.096;8.716;2022-12-10T17:37:16;1.30;79.00
75161;DHT22;63738;50.096;8.716;2022-12-10T17:39:43;1.30;78.80
75161;DHT22;63738;50.096;8.716;2022-12-10T17:42:09;1.30;78.90
75161;DHT22;63738;50.096;8.716;2022-12-10T17:44:35;1.30;79.00
75161;DHT22;63738;50.096;8.716;2022-12-10T17:47:08;1.20;79.10
75161;DHT22;63738;50.096;8.716;2022-12-10T17:49:39;1.30;79.10
75161;DHT22;63738;50.096;8.716;2022-12-10T17:52:05;1.30;79.30
75161;DHT22;63738;50.096;8.716;2022-12-10T17:54:30;1.20;78.90
75161;DHT22;63738;50.096;8.716;2022-12-10T17:56:56;1.20;78.90
75161;DHT22;63738;50.096;8.716;2022-12-10T17:59:21;1.10;79.30
75161;DHT22;63738;50.096;8.716;2022-12-10T18:01:47;1.20;78.90
75161;DHT22;63738;50.096;8.716;2022-12-10T18:04:12;1.20;79.10
75161;DHT22;63738;50.096;8.716;2022-12-10T18:06:38;1.10;79.10
75161;DHT22;63738;50.096;8.716;2022-12-10T18:09:06;0.90;79.40
75161;DHT22;63738;50.096;8.716;2022-12-10T18:11:35;0.90;79.40